createdAt,value
2022-08-09T00:00:48.029Z,42.92
2022-08-09T00:01:54.623Z,43.57
2022-08-09T00:02:50.028Z,48.32
2022-08-09T00:04:05.590Z,43.30
2022-08-09T00:05:03.664Z,52.70
2022-08-09T00:06:19.202Z,43.09
2022-08-09T00:06:47.991Z,42.52
2022-08-09T00:07:46.986Z,43.38
2022-08-09T00:08:46.967Z,42.98
2022-08-09T00:09:46.959Z,42.70
2022-08-09T00:11:24.488Z,49.72
2022-08-09T00:12:15.609Z,54.47
2022-08-09T00:12:51.740Z,43.46
2022-08-09T00:13:46.947Z,49.03
2022-08-09T00:14:47.478Z,48.25
2022-08-09T00:15:59.249Z,45.14
2022-08-09T00:16:47.927Z,57.27
2022-08-09T00:18:05.798Z,48.34
2022-08-09T00:18:47.887Z,48.15
2022-08-09T00:19:48.032Z,49.02
2022-08-09T00:20:50.001Z,49.88
2022-08-09T00:21:56.066Z,43.47
2022-08-09T00:22:47.862Z,42.49
2022-08-09T00:23:57.792Z,43.43
2022-08-09T00:24:47.858Z,44.63
2022-08-09T00:25:46.858Z,49.61
2022-08-09T00:26:47.828Z,55.94
2022-08-09T00:27:47.967Z,56.38
2022-08-09T00:28:52.662Z,54.10
2022-08-09T00:30:24.464Z,44.85
2022-08-09T00:30:47.786Z,44.30
2022-08-09T00:31:58.748Z,44.39
2022-08-09T00:32:47.775Z,54.64
2022-08-09T00:33:50.785Z,51.71
2022-08-09T00:34:52.324Z,49.82
2022-08-09T00:35:47.943Z,50.02
2022-08-09T00:36:46.748Z,44.49
2022-08-09T00:37:46.735Z,43.77
2022-08-09T00:38:46.843Z,54.25
2022-08-09T00:40:12.873Z,50.89
2022-08-09T00:40:52.657Z,49.87
2022-08-09T00:44:11.079Z,54.81
2022-08-09T00:44:11.823Z,45.11
2022-08-09T00:44:13.329Z,43.94
2022-08-09T00:44:47.673Z,49.37
2022-08-09T00:45:50.504Z,43.57
2022-08-09T00:46:57.844Z,58.42
2022-08-09T00:47:47.646Z,45.79
2022-08-09T00:48:47.600Z,57.56
2022-08-09T00:49:55.108Z,43.96
2022-08-09T00:50:47.644Z,57.40
2022-08-09T00:51:55.882Z,50.99
2022-08-09T00:52:47.605Z,46.87
2022-08-09T00:53:46.638Z,50.98
2022-08-09T00:54:46.610Z,56.60
2022-08-09T00:56:04.775Z,44.13
2022-08-09T00:56:47.606Z,57.14
2022-08-09T00:57:49.784Z,49.67
2022-08-09T00:58:48.990Z,55.02
2022-08-09T00:59:52.666Z,43.47
2022-08-09T01:00:47.788Z,49.88
2022-08-09T01:01:46.617Z,43.99
2022-08-09T01:02:46.545Z,43.45
2022-08-09T01:03:46.809Z,53.70
2022-08-09T01:04:46.550Z,49.78
2022-08-09T01:05:53.569Z,48.14
2022-08-09T01:06:54.347Z,45.44
2022-08-09T01:08:01.154Z,43.67
2022-08-09T01:08:49.400Z,46.20
2022-08-09T01:09:46.828Z,50.06
2022-08-09T01:10:46.468Z,43.93
2022-08-09T01:11:53.145Z,43.03
2022-08-09T01:12:47.471Z,42.69
2022-08-09T01:13:59.001Z,43.01
2022-08-09T01:14:48.066Z,42.11
2022-08-09T01:15:51.662Z,48.45
2022-08-09T01:16:49.299Z,43.45
2022-08-09T01:17:46.456Z,43.95
2022-08-09T01:18:47.636Z,48.85
2022-08-09T01:19:57.134Z,42.74
2022-08-09T01:20:47.450Z,52.88
2022-08-09T01:21:51.253Z,49.75
2022-08-09T01:22:48.193Z,51.10
2022-08-09T01:24:02.294Z,43.34
2022-08-09T01:24:50.366Z,42.81
2022-08-09T01:25:48.897Z,42.69
2022-08-09T01:26:52.989Z,44.02
2022-08-09T01:27:47.400Z,49.92
2022-08-09T01:28:46.337Z,49.00
2022-08-09T01:29:55.800Z,49.42
2022-08-09T01:30:52.104Z,43.70
2022-08-09T01:32:30.335Z,43.11
2022-08-09T01:32:47.376Z,44.96
2022-08-09T01:33:46.321Z,46.75
2022-08-09T01:34:46.342Z,44.06
2022-08-09T01:35:46.469Z,54.55
2022-08-09T01:36:47.293Z,48.63
2022-08-09T01:38:07.748Z,43.48
2022-08-09T01:38:47.301Z,54.64
2022-08-09T01:39:46.379Z,49.75
2022-08-09T01:40:53.019Z,48.82
2022-08-09T01:41:53.585Z,43.12
2022-08-09T01:42:48.291Z,43.11
2022-08-09T01:43:50.925Z,48.95
2022-08-09T01:44:47.243Z,43.19
2022-08-09T02:03:46.702Z,46.06
2022-08-09T02:04:46.778Z,49.80
2022-08-09T02:05:53.513Z,48.68
2022-08-09T02:06:58.397Z,44.76
2022-08-09T02:08:41.402Z,50.29
2022-08-09T02:08:58.008Z,43.81
2022-08-09T02:09:59.403Z,43.42
2022-08-09T02:18:01.120Z,44.11
2022-08-09T02:18:49.445Z,43.94
2022-08-09T02:19:48.449Z,48.71
2022-08-09T02:20:48.470Z,44.57
2022-08-09T02:21:48.428Z,48.24
2022-08-09T02:22:49.420Z,49.05
2022-08-09T02:23:48.412Z,48.86
2022-08-09T02:24:51.777Z,44.50
2022-08-09T02:25:55.645Z,50.43
2022-08-09T02:26:50.683Z,50.81
2022-08-09T02:28:00.568Z,45.09
2022-08-09T02:28:50.614Z,51.08
2022-08-09T02:29:50.634Z,45.40
2022-08-09T02:30:49.596Z,53.46
2022-08-09T02:34:12.960Z,50.57
2022-08-09T02:35:01.468Z,55.08
2022-08-09T02:36:04.293Z,59.83
2022-08-09T02:37:00.452Z,45.32
2022-08-09T02:38:00.457Z,49.66
2022-08-09T02:39:00.418Z,50.32
2022-08-09T02:40:01.859Z,53.70
2022-08-09T02:41:03.058Z,47.10
2022-08-09T02:42:00.535Z,53.34
2022-08-09T02:43:01.414Z,57.48
2022-08-09T02:44:01.080Z,56.80
2022-08-09T02:45:01.412Z,47.32
2022-08-09T02:46:00.416Z,46.21
2022-08-09T02:47:00.367Z,54.94
2022-08-09T02:48:00.343Z,55.20
2022-08-09T02:49:01.549Z,54.76
2022-08-09T02:50:01.869Z,53.79
2022-08-09T02:51:02.698Z,47.29
2022-08-09T02:52:00.316Z,46.30
2022-08-09T02:53:00.344Z,61.09
2022-08-09T02:54:01.450Z,47.45
2022-08-09T02:55:00.299Z,48.86
2022-08-09T02:56:01.151Z,50.46
2022-08-09T02:57:00.332Z,56.03
2022-08-09T02:58:35.337Z,46.48
2022-08-09T02:59:01.277Z,62.20
2022-08-09T03:00:21.079Z,55.73
2022-08-09T03:01:04.261Z,50.40
2022-08-09T03:02:06.622Z,51.44
2022-08-09T03:03:01.291Z,52.31
2022-08-09T03:04:16.963Z,58.70
2022-08-09T03:05:01.225Z,48.37
2022-08-09T03:06:00.213Z,51.70
2022-08-09T03:07:14.346Z,45.13
2022-08-09T03:08:01.219Z,55.77
2022-08-09T03:09:00.191Z,55.16
2022-08-09T03:10:00.664Z,58.23
2022-08-09T03:11:00.270Z,57.76
2022-08-09T03:12:05.765Z,51.39
2022-08-09T03:13:01.153Z,60.46
2022-08-09T03:14:01.791Z,60.55
2022-08-09T03:15:00.145Z,60.58
2022-08-09T03:16:06.847Z,53.56
2022-08-09T03:17:02.157Z,53.77
2022-08-09T03:18:00.124Z,62.40
2022-08-09T03:19:01.787Z,62.42
2022-08-09T03:20:05.272Z,50.89
2022-08-09T03:21:01.098Z,53.81
2022-08-09T03:22:03.119Z,56.59
2022-08-09T03:23:00.457Z,54.52
2022-08-09T03:24:04.022Z,61.60
2022-08-09T03:25:06.002Z,49.76
2022-08-09T03:26:03.630Z,56.32
2022-08-09T03:27:00.089Z,55.63
2022-08-09T03:28:00.573Z,60.38
2022-08-09T03:29:00.041Z,58.78
2022-08-09T03:30:01.272Z,62.00
2022-08-09T03:31:00.051Z,54.63
2022-08-09T03:32:01.036Z,55.97
2022-08-09T03:33:00.108Z,62.75
2022-08-09T03:34:00.022Z,58.99
2022-08-09T03:34:59.995Z,62.67
2022-08-09T03:36:13.347Z,61.99
2022-08-09T03:37:02.413Z,57.69
2022-08-09T03:38:00.990Z,65.07
2022-08-09T03:39:00.626Z,63.79
2022-08-09T03:40:00.043Z,64.41
2022-08-09T03:41:02.819Z,61.07
2022-08-09T03:42:06.044Z,60.49
2022-08-09T03:43:00.927Z,61.19
2022-08-09T03:44:08.163Z,61.48
2022-08-09T03:45:00.926Z,66.96
2022-08-09T03:46:04.984Z,59.43
2022-08-09T04:02:52.681Z,65.46
2022-08-09T04:04:01.508Z,62.88
2022-08-09T04:04:52.288Z,65.69
2022-08-09T04:05:51.248Z,59.86
2022-08-09T04:06:52.366Z,65.29
2022-08-09T04:07:57.686Z,59.84
2022-08-09T04:08:53.467Z,65.56
2022-08-09T04:09:52.957Z,66.21
2022-08-09T04:10:52.373Z,63.29
2022-08-09T04:11:52.340Z,57.33
2022-08-09T04:12:52.368Z,62.11
2022-08-09T04:14:53.835Z,69.13
2022-08-09T04:15:01.447Z,57.57
2022-08-09T04:16:20.059Z,69.27
2022-08-09T04:16:53.337Z,61.01
2022-08-09T04:17:52.316Z,67.50
2022-08-09T04:18:53.302Z,62.18
2022-08-09T04:19:56.177Z,57.74
2022-08-09T04:20:52.328Z,65.15
2022-08-09T04:21:52.264Z,57.75
2022-08-09T04:22:52.260Z,67.11
2022-08-09T04:23:53.625Z,67.69
2022-08-09T04:24:53.868Z,62.65
2022-08-09T04:25:53.057Z,59.63
2022-08-09T04:26:52.231Z,65.13
2022-08-09T04:27:52.222Z,58.44
2022-08-09T04:28:55.056Z,67.71
2022-08-09T04:29:53.263Z,62.42
2022-08-09T04:30:52.186Z,64.93
2022-08-09T04:31:52.170Z,68.07
2022-08-09T04:32:54.154Z,64.95
2022-08-09T04:33:56.960Z,60.93
2022-08-09T04:34:54.440Z,65.59
2022-08-09T04:35:52.173Z,62.51
2022-08-09T04:36:52.146Z,66.50
2022-08-09T04:37:52.138Z,69.01
2022-08-09T04:38:52.216Z,67.17
2022-08-09T04:39:52.141Z,70.46
2022-08-09T04:40:56.341Z,62.19
2022-08-09T04:41:53.114Z,69.38
2022-08-09T04:42:52.103Z,64.93
2022-08-09T04:44:05.253Z,64.73
2022-08-09T04:44:53.125Z,67.28
2022-08-09T04:45:54.203Z,66.16
2022-08-09T04:46:59.089Z,67.16
2022-08-09T04:47:58.828Z,71.19
2022-08-09T04:48:57.662Z,67.55
2022-08-09T04:49:54.445Z,63.73
2022-08-09T04:50:52.034Z,64.68
2022-08-09T04:51:52.045Z,69.53
2022-08-09T04:52:52.057Z,64.98
2022-08-09T04:53:54.264Z,64.17
2022-08-09T04:54:54.022Z,64.81
2022-08-09T04:55:57.950Z,62.25
2022-08-09T04:56:53.001Z,61.21
2022-08-09T04:57:59.449Z,68.90
2022-08-09T04:58:53.003Z,61.82
2022-08-09T04:59:51.965Z,61.36
2022-08-09T05:00:54.314Z,62.24
2022-08-09T05:01:51.955Z,63.79
2022-08-09T05:02:53.060Z,63.35
2022-08-09T05:03:58.487Z,67.95
2022-08-09T05:04:55.713Z,62.52
2022-08-09T05:06:07.030Z,68.69
2022-08-09T05:06:54.894Z,66.74
2022-08-09T05:07:53.334Z,65.84
2022-08-09T05:08:52.912Z,63.95
2022-08-09T05:09:52.917Z,67.97
2022-08-09T05:10:52.874Z,61.42
2022-08-09T05:11:51.899Z,68.59
2022-08-09T05:12:51.887Z,66.42
2022-08-09T05:13:51.904Z,67.33
2022-08-09T05:14:51.866Z,58.03
2022-08-09T05:15:52.321Z,65.91
2022-08-09T05:16:58.872Z,68.62
2022-08-09T05:18:42.487Z,67.79
2022-08-09T05:18:57.946Z,66.49
2022-08-09T05:19:56.651Z,64.13
2022-08-09T05:20:51.786Z,66.16
2022-08-09T05:21:55.903Z,67.72
2022-08-09T05:23:55.166Z,66.83
2022-08-09T05:23:59.524Z,71.01
2022-08-09T05:24:52.788Z,71.31
2022-08-09T05:25:51.775Z,65.57
2022-08-09T05:26:51.758Z,67.44
2022-08-09T05:27:51.751Z,66.80
2022-08-09T05:28:52.049Z,65.97
2022-08-09T05:29:51.774Z,67.61
2022-08-09T05:30:51.813Z,67.87
2022-08-09T05:31:58.421Z,65.64
2022-08-09T05:32:53.765Z,67.21
2022-08-09T05:33:51.705Z,67.30
2022-08-09T05:34:51.822Z,63.74
2022-08-09T05:35:51.702Z,66.64
2022-08-09T05:36:51.730Z,66.01
2022-08-09T05:37:52.406Z,66.58
2022-08-09T05:38:51.666Z,63.32
2022-08-09T05:39:51.733Z,69.96
2022-08-09T05:40:51.671Z,64.47
2022-08-09T05:41:51.653Z,62.45
2022-08-09T05:42:51.651Z,63.47
2022-08-09T05:43:51.662Z,70.24
2022-08-09T05:44:52.122Z,65.94
2022-08-09T05:45:55.602Z,67.17
2022-08-09T05:46:52.649Z,66.22
2022-08-09T05:47:54.300Z,69.02
2022-08-09T05:48:58.872Z,60.72
2022-08-09T05:50:26.838Z,59.68
2022-08-09T05:51:12.014Z,62.49
2022-08-09T05:51:53.566Z,67.66
2022-08-09T05:52:54.156Z,68.56
2022-08-09T05:53:57.574Z,68.20
2022-08-09T05:54:52.543Z,66.40
2022-08-09T05:55:53.160Z,67.45
2022-08-09T05:56:54.887Z,62.68
2022-08-09T05:57:56.981Z,55.81
2022-08-09T05:58:58.316Z,64.09
2022-08-09T05:59:53.334Z,67.79
2022-08-09T06:00:51.506Z,67.35
2022-08-09T06:01:51.519Z,62.73
2022-08-09T06:02:54.180Z,60.69
2022-08-09T06:03:54.691Z,65.87
2022-08-09T06:04:52.475Z,65.01
2022-08-09T06:06:04.366Z,68.76
2022-08-09T06:06:52.489Z,64.21
2022-08-09T06:08:07.834Z,65.00
2022-08-09T06:08:52.890Z,61.37
2022-08-09T06:10:02.123Z,58.79
2022-08-09T06:10:52.434Z,63.62
2022-08-09T06:11:56.796Z,61.02
2022-08-09T06:13:03.128Z,68.78
2022-08-09T06:13:52.409Z,66.90
2022-08-09T06:14:51.394Z,66.71
2022-08-09T06:15:52.286Z,63.35
2022-08-09T06:16:52.214Z,61.55
2022-08-09T06:17:51.410Z,59.98
2022-08-09T06:18:51.422Z,67.07
2022-08-09T06:19:51.357Z,66.86
2022-08-09T06:20:54.622Z,56.46
2022-08-09T06:21:58.738Z,63.10
2022-08-09T06:22:52.481Z,65.85
2022-08-09T06:23:57.135Z,63.79
2022-08-09T06:24:52.377Z,58.63
2022-08-09T06:25:55.364Z,70.25
2022-08-09T06:26:51.304Z,65.81
2022-08-09T06:27:51.804Z,54.25
2022-08-09T06:28:59.986Z,63.99
2022-08-09T06:30:04.587Z,62.62
2022-08-09T06:30:52.272Z,66.32
2022-08-09T06:32:17.281Z,67.15
2022-08-09T06:33:13.162Z,61.24
2022-08-09T06:33:53.226Z,69.43
2022-08-09T06:34:53.157Z,56.26
2022-08-09T06:35:56.953Z,58.79
2022-08-09T06:36:57.233Z,62.06
2022-08-09T06:38:05.405Z,64.46
2022-08-09T06:38:52.930Z,60.86
2022-08-09T06:39:59.899Z,69.81
2022-08-09T06:40:54.815Z,60.77
2022-08-09T06:42:09.352Z,62.77
2022-08-09T06:42:52.176Z,65.45
2022-08-09T06:43:51.157Z,64.83
2022-08-09T06:44:54.012Z,61.89
2022-08-09T06:46:04.798Z,62.38
2022-08-09T06:46:55.226Z,55.56
2022-08-09T06:48:00.659Z,69.01
2022-08-09T06:48:52.163Z,65.83
2022-08-09T06:50:13.335Z,67.09
2022-08-09T06:50:52.136Z,66.97
2022-08-09T06:51:51.114Z,64.20
2022-08-09T06:52:51.103Z,67.16
2022-08-09T06:53:51.116Z,67.37
2022-08-09T06:54:51.124Z,64.84
2022-08-09T06:55:51.078Z,63.85
2022-08-09T06:56:51.557Z,69.47
2022-08-09T06:58:03.288Z,68.08
2022-08-09T07:00:50.319Z,63.24
2022-08-09T07:00:54.310Z,58.28
2022-08-09T07:00:58.765Z,70.43
2022-08-09T07:01:54.211Z,62.35
2022-08-09T07:02:52.107Z,57.96
2022-08-09T07:03:56.615Z,64.01
2022-08-09T07:04:53.873Z,62.65
2022-08-09T07:05:58.387Z,61.28
2022-08-09T07:06:53.496Z,64.25
2022-08-09T07:08:00.116Z,62.89
2022-08-09T07:08:52.946Z,61.15
2022-08-09T07:09:55.438Z,62.88
2022-08-09T07:10:53.440Z,64.64
2022-08-09T07:11:53.476Z,56.05
2022-08-09T07:12:57.608Z,67.60
2022-08-09T07:14:05.432Z,68.37
2022-08-09T07:14:53.432Z,64.40
2022-08-09T07:16:36.393Z,60.92
2022-08-09T07:16:57.612Z,64.47
2022-08-09T07:17:56.385Z,64.04
2022-08-09T07:18:51.935Z,58.27
2022-08-09T07:19:55.482Z,60.75
2022-08-09T07:20:52.897Z,65.72
2022-08-09T07:21:55.750Z,68.14
2022-08-09T07:22:52.943Z,64.44
2022-08-09T07:23:57.677Z,62.93
2022-08-09T07:24:52.018Z,65.78
2022-08-09T07:25:52.564Z,62.35
2022-08-09T07:26:51.841Z,65.83
2022-08-09T07:27:53.330Z,69.10
2022-08-09T07:29:08.224Z,60.72
2022-08-09T07:29:52.508Z,70.60
2022-08-09T07:30:50.832Z,69.43
2022-08-09T07:31:50.839Z,66.68
2022-08-09T07:32:51.684Z,64.77
2022-08-09T07:33:53.106Z,63.19
2022-08-09T07:34:52.317Z,61.45
2022-08-09T07:35:54.080Z,65.26
2022-08-09T07:36:50.803Z,64.98
2022-08-09T07:37:51.449Z,65.17
2022-08-09T07:39:00.561Z,65.57
2022-08-09T07:39:52.828Z,60.41
2022-08-09T07:41:08.150Z,65.17
2022-08-09T07:41:53.813Z,66.45
2022-08-09T07:42:50.767Z,60.57
2022-08-09T07:43:55.830Z,61.31
2022-08-09T07:44:56.259Z,56.90
2022-08-09T07:45:51.733Z,68.79
2022-08-09T07:46:52.350Z,69.67
2022-08-09T07:48:00.797Z,66.71
2022-08-09T07:48:58.906Z,64.53
2022-08-09T07:50:04.736Z,67.04
2022-08-09T07:50:53.082Z,60.51
2022-08-09T07:52:04.682Z,65.31
2022-08-09T07:52:51.685Z,60.92
2022-08-09T07:54:07.073Z,62.76
2022-08-09T07:54:51.794Z,64.67
2022-08-09T07:56:03.559Z,64.63
2022-08-09T07:56:51.611Z,61.29
2022-08-09T07:57:50.617Z,64.80
2022-08-09T07:58:50.659Z,63.92
2022-08-09T07:59:51.933Z,60.29
2022-08-09T08:00:56.181Z,65.21
2022-08-09T08:01:53.257Z,64.19
2022-08-09T08:02:50.580Z,64.56
2022-08-09T08:03:50.592Z,62.63
2022-08-09T08:04:53.694Z,68.08
2022-08-09T08:05:54.256Z,52.15
2022-08-09T08:06:55.953Z,55.53
2022-08-09T08:08:42.802Z,69.09
2022-08-09T08:09:03.512Z,67.88
2022-08-09T08:09:55.199Z,63.84
2022-08-09T08:11:03.189Z,59.38
2022-08-09T08:12:10.511Z,67.06
2022-08-09T08:12:52.399Z,62.88
2022-08-09T08:13:57.232Z,66.82
2022-08-09T08:14:51.545Z,65.09
2022-08-09T08:15:50.493Z,67.73
2022-08-09T08:16:51.068Z,63.42
2022-08-09T08:17:54.705Z,58.11
2022-08-09T08:18:51.484Z,64.93
2022-08-09T08:19:51.957Z,68.07
2022-08-09T08:20:50.461Z,57.76
2022-08-09T08:21:52.604Z,53.50
2022-08-09T08:22:51.506Z,55.59
2022-08-09T08:23:56.046Z,68.58
2022-08-09T08:24:51.418Z,65.11
2022-08-09T08:26:06.112Z,62.86
2022-08-09T08:26:55.503Z,64.53
2022-08-09T08:27:51.452Z,60.57
2022-08-09T08:28:50.871Z,65.39
2022-08-09T08:29:52.442Z,65.27
2022-08-09T08:30:51.326Z,57.07
2022-08-09T08:32:03.667Z,63.35
2022-08-09T08:33:23.662Z,64.89
2022-08-09T08:33:52.527Z,59.02
2022-08-09T08:34:52.032Z,67.54
2022-08-09T08:35:58.356Z,61.98
2022-08-09T08:36:51.352Z,60.56
2022-08-09T08:37:59.425Z,54.42
2022-08-09T08:38:52.347Z,66.28
2022-08-09T08:39:50.373Z,61.50
2022-08-09T08:40:50.308Z,59.09
2022-08-09T08:41:52.347Z,69.51
2022-08-09T08:42:50.325Z,60.06
2022-08-09T08:43:50.918Z,66.04
2022-08-09T08:44:50.279Z,64.02
2022-08-09T08:45:51.427Z,65.04
2022-08-09T08:47:03.342Z,65.89
2022-08-09T08:47:51.261Z,56.96
2022-08-09T08:48:53.680Z,64.56
2022-08-09T08:49:50.251Z,68.24
2022-08-09T08:50:51.951Z,64.41
2022-08-09T08:52:01.665Z,61.71
2022-08-09T08:52:57.708Z,67.16
2022-08-09T08:54:03.428Z,60.77
2022-08-09T08:54:51.227Z,67.86
2022-08-09T08:55:52.652Z,61.06
2022-08-09T08:56:50.233Z,62.89
2022-08-09T08:57:56.315Z,61.91
2022-08-09T08:58:51.222Z,62.95
2022-08-09T08:59:51.034Z,60.00
2022-08-09T09:00:54.284Z,61.95
2022-08-09T09:01:52.678Z,64.85
2022-08-09T09:02:52.708Z,63.28
2022-08-09T09:03:50.538Z,64.09
2022-08-09T09:04:52.995Z,64.60
2022-08-09T09:06:00.393Z,58.15
2022-08-09T09:06:51.144Z,60.78
2022-08-09T09:07:50.175Z,64.79
2022-08-09T09:08:52.515Z,64.58
2022-08-09T09:10:01.877Z,65.42
2022-08-09T09:10:51.128Z,66.05
2022-08-09T09:11:50.097Z,65.39
2022-08-09T09:12:50.090Z,59.99
2022-08-09T09:13:56.743Z,56.90
2022-08-09T09:14:51.074Z,64.54
2022-08-09T09:15:52.040Z,59.23
2022-08-09T09:16:50.088Z,64.18
2022-08-09T09:17:52.625Z,54.45
2022-08-09T09:18:58.170Z,68.81
2022-08-09T09:19:52.056Z,62.77
2022-08-09T09:20:50.035Z,63.37
2022-08-09T09:21:50.038Z,64.03
2022-08-09T09:22:50.028Z,63.49
2022-08-09T09:23:58.113Z,63.85
2022-08-09T09:24:51.007Z,66.14
2022-08-09T09:26:05.065Z,64.87
2022-08-09T09:26:50.988Z,59.47
2022-08-09T09:28:05.014Z,55.05
2022-08-09T09:29:04.075Z,66.73
2022-08-09T09:30:12.316Z,63.24
2022-08-09T09:30:51.955Z,64.11
2022-08-09T09:32:03.605Z,67.02
2022-08-09T09:32:50.972Z,64.17
2022-08-09T09:33:56.905Z,66.50
2022-08-09T09:34:50.945Z,63.65
2022-08-09T09:36:00.506Z,62.69
2022-08-09T09:36:54.151Z,66.54
2022-08-09T09:37:49.915Z,65.31
2022-08-09T09:38:49.913Z,64.38
2022-08-09T09:39:55.379Z,65.92
2022-08-09T09:40:50.887Z,59.37
2022-08-09T09:41:50.901Z,62.30
2022-08-09T09:42:50.896Z,57.02
2022-08-09T09:44:10.706Z,63.33
2022-08-09T09:44:50.873Z,63.38
2022-08-09T09:45:57.595Z,63.44
2022-08-09T09:46:52.728Z,62.96
2022-08-09T09:47:58.283Z,66.81
2022-08-09T09:48:50.856Z,64.46
2022-08-09T09:50:13.687Z,53.04
2022-08-09T09:50:52.577Z,66.06
2022-08-09T09:51:51.366Z,62.54
2022-08-09T09:52:52.706Z,62.45
2022-08-09T09:54:02.141Z,64.45
2022-08-09T09:54:55.722Z,62.55
2022-08-09T09:55:57.626Z,58.34
2022-08-09T09:56:53.252Z,68.04
2022-08-09T09:58:04.218Z,64.37
2022-08-09T09:58:53.368Z,62.43
2022-08-09T09:59:52.084Z,61.13
2022-08-09T10:00:54.898Z,63.07
2022-08-09T10:01:50.744Z,61.67
2022-08-09T10:02:49.732Z,64.80
2022-08-09T10:03:57.169Z,57.89
2022-08-09T10:04:50.707Z,62.98
2022-08-09T10:06:00.858Z,63.68
2022-08-09T10:06:53.864Z,64.86
2022-08-09T10:08:11.305Z,64.78
2022-08-09T10:08:55.110Z,65.06
2022-08-09T10:09:54.721Z,61.90
2022-08-09T10:10:49.657Z,62.80
2022-08-09T10:12:01.278Z,62.92
2022-08-09T10:12:52.081Z,61.52
2022-08-09T10:13:50.411Z,67.39
2022-08-09T10:14:51.695Z,53.16
2022-08-09T10:16:08.904Z,62.59
2022-08-09T10:16:58.232Z,60.05
2022-08-09T10:17:56.196Z,66.30
2022-08-09T10:18:54.230Z,65.91
2022-08-09T10:19:52.861Z,58.73
2022-08-09T10:20:50.604Z,54.26
2022-08-09T10:21:49.730Z,60.83
2022-08-09T10:22:49.575Z,58.76
2022-08-09T10:23:49.605Z,58.17
2022-08-09T10:24:49.959Z,64.02
2022-08-09T10:26:07.794Z,66.66
2022-08-09T10:26:50.605Z,69.35
2022-08-09T10:27:57.122Z,63.16
2022-08-09T10:29:32.796Z,64.72
2022-08-09T10:30:30.059Z,66.07
2022-08-09T10:32:51.815Z,61.42
2022-08-09T10:34:08.451Z,64.02
2022-08-09T10:34:50.505Z,62.91
2022-08-09T10:35:49.513Z,62.82
2022-08-09T10:36:49.501Z,58.37
2022-08-09T10:37:49.479Z,64.42
2022-08-09T10:38:56.441Z,63.77
2022-08-09T10:39:50.592Z,65.42
2022-08-09T10:40:49.995Z,65.89
2022-08-09T10:41:50.089Z,56.23
2022-08-09T10:42:53.115Z,64.04
2022-08-09T10:43:58.670Z,65.03
2022-08-09T10:44:50.416Z,64.54
2022-08-09T10:46:00.076Z,64.53
2022-08-09T10:46:57.569Z,62.09
2022-08-09T10:48:13.220Z,62.95
2022-08-09T10:48:52.282Z,66.25
2022-08-09T10:49:54.173Z,62.08
2022-08-09T10:50:49.381Z,63.21
2022-08-09T10:51:49.356Z,67.56
2022-08-09T10:52:49.365Z,62.64
2022-08-09T10:53:54.145Z,63.07
2022-08-09T10:54:50.327Z,64.37
2022-08-09T10:55:58.905Z,51.48
2022-08-09T10:56:50.524Z,62.15
2022-08-09T10:57:51.823Z,64.40
2022-08-09T10:58:49.574Z,61.89
2022-08-09T10:59:57.685Z,66.09
2022-08-09T11:03:03.192Z,68.91
2022-08-09T11:03:11.318Z,65.59
2022-08-09T11:03:15.527Z,64.81
2022-08-09T11:03:53.803Z,63.02
2022-08-09T11:04:55.494Z,62.71
2022-08-09T11:06:00.045Z,51.90
2022-08-09T11:06:50.245Z,65.51
2022-08-09T11:07:56.851Z,59.64
2022-08-09T11:08:53.143Z,60.45
2022-08-09T11:09:49.227Z,56.00
2022-08-09T11:10:54.841Z,56.92
2022-08-09T11:11:51.891Z,65.16
2022-08-09T11:12:49.221Z,65.68
2022-08-09T11:13:54.510Z,62.23
2022-08-09T11:14:50.183Z,65.29
2022-08-09T11:15:50.974Z,59.53
2022-08-09T11:16:50.188Z,65.67
2022-08-09T11:17:53.298Z,59.78
2022-08-09T11:18:50.185Z,58.88
2022-08-09T11:20:12.027Z,64.68
2022-08-09T11:20:50.180Z,60.97
2022-08-09T11:21:56.871Z,66.49
2022-08-09T11:22:56.731Z,60.17
2022-08-09T11:23:50.166Z,58.53
2022-08-09T11:24:50.161Z,64.56
2022-08-09T11:25:49.415Z,60.30
2022-08-09T11:26:54.555Z,63.95
2022-08-09T11:28:04.977Z,63.44
2022-08-09T11:28:56.542Z,66.31
2022-08-09T11:30:06.346Z,56.04
2022-08-09T11:30:50.237Z,70.04
2022-08-09T11:31:52.559Z,69.23
2022-08-09T11:32:49.137Z,62.38
2022-08-09T11:33:51.135Z,57.83
2022-08-09T11:34:51.542Z,64.58
2022-08-09T11:35:51.900Z,61.27
2022-08-09T11:36:49.045Z,67.67
2022-08-09T11:37:49.865Z,64.88
2022-08-09T11:38:49.025Z,62.39
2022-08-09T11:39:49.148Z,59.79
2022-08-09T11:40:49.012Z,66.88
2022-08-09T11:41:50.066Z,63.82
2022-08-09T11:42:49.006Z,56.89
2022-08-09T11:43:49.290Z,63.39
2022-08-09T11:44:48.968Z,58.21
2022-08-09T11:45:48.961Z,60.86
2022-08-09T11:46:49.112Z,58.02
2022-08-09T11:47:48.964Z,60.87
2022-08-09T11:48:48.937Z,62.59
2022-08-09T11:50:53.960Z,61.37
2022-08-09T11:50:54.037Z,66.71
2022-08-09T11:53:01.111Z,53.78
2022-08-09T11:53:03.081Z,61.01
2022-08-09T11:54:00.351Z,63.04
2022-08-09T11:54:50.930Z,59.50
2022-08-09T11:55:53.750Z,59.57
2022-08-09T11:56:49.874Z,63.66
2022-08-09T11:58:02.133Z,63.11
2022-08-09T11:58:50.392Z,61.56
2022-08-09T11:59:52.338Z,63.01
2022-08-09T12:00:49.917Z,65.20
2022-08-09T12:02:15.926Z,56.97
2022-08-09T12:02:52.403Z,60.84
2022-08-09T12:03:57.370Z,62.21
2022-08-09T12:04:49.873Z,68.07
2022-08-09T12:05:48.844Z,65.39
2022-08-09T12:06:49.181Z,68.04
2022-08-09T12:07:49.819Z,56.46
2022-08-09T12:08:48.878Z,66.27
2022-08-09T12:09:50.263Z,69.57
2022-08-09T12:10:48.816Z,65.28
2022-08-09T12:12:03.598Z,56.96
2022-08-09T12:12:52.709Z,67.70
2022-08-09T12:14:09.252Z,67.89
2022-08-09T12:15:07.302Z,60.12
2022-08-09T12:15:52.427Z,63.62
2022-08-09T12:16:48.772Z,67.57
2022-08-09T12:17:53.371Z,60.53
2022-08-09T12:18:53.934Z,62.84
2022-08-09T12:19:50.682Z,67.65
2022-08-09T12:20:48.733Z,65.29
2022-08-09T12:21:51.042Z,62.02
2022-08-09T12:22:50.138Z,59.95
2022-08-09T12:24:02.819Z,60.67
2022-08-09T12:24:49.709Z,58.91
2022-08-09T12:25:49.526Z,60.86
2022-08-09T12:28:59.752Z,62.12
2022-08-09T12:29:00.149Z,66.69
2022-08-09T12:29:13.811Z,62.05
2022-08-09T12:29:54.039Z,65.67
2022-08-09T12:30:49.657Z,65.55
2022-08-09T12:32:02.627Z,63.04
2022-08-09T12:32:50.520Z,61.76
2022-08-09T12:33:59.442Z,66.37
2022-08-09T12:34:49.614Z,59.17
2022-08-09T12:35:48.666Z,58.40
2022-08-09T12:36:48.673Z,59.59
2022-08-09T12:37:51.756Z,66.40
2022-08-09T12:38:48.589Z,62.18
2022-08-09T12:39:48.661Z,62.35
2022-08-09T12:40:48.594Z,66.90
2022-08-09T12:41:48.602Z,66.53
2022-08-09T12:42:50.184Z,62.06
2022-08-09T12:44:05.258Z,63.02
2022-08-09T12:44:52.395Z,64.28
2022-08-09T12:45:59.559Z,68.51
2022-08-09T12:46:50.067Z,64.55
2022-08-09T12:47:50.282Z,61.97
2022-08-09T12:48:50.526Z,69.35
2022-08-09T12:49:51.268Z,61.41
2022-08-09T12:50:48.521Z,63.67
2022-08-09T12:52:00.537Z,62.94
2022-08-09T12:53:07.869Z,65.97
2022-08-09T12:53:52.994Z,62.28
2022-08-09T12:56:10.708Z,65.53
2022-08-09T12:56:14.198Z,65.97
2022-08-09T12:56:51.149Z,64.41
2022-08-09T12:57:48.483Z,70.19
2022-08-09T12:58:52.417Z,64.43
2022-08-09T13:00:03.102Z,68.76
2022-08-09T13:00:49.540Z,67.40
2022-08-09T13:01:49.774Z,61.49
2022-08-09T13:02:48.443Z,63.15
2022-08-09T13:03:53.665Z,61.63
2022-08-09T13:04:49.420Z,66.14
2022-08-09T13:06:11.372Z,65.91
2022-08-09T13:06:49.404Z,65.16
2022-08-09T13:07:50.925Z,62.17
2022-08-09T13:08:49.270Z,63.75
2022-08-09T13:09:55.268Z,67.12
2022-08-09T13:10:52.306Z,67.59
2022-08-09T13:11:48.359Z,67.31
2022-08-09T13:13:09.559Z,64.10
2022-08-09T13:14:41.636Z,65.38
2022-08-09T13:14:53.756Z,60.49
2022-08-09T13:15:50.357Z,61.07
2022-08-09T13:16:48.338Z,63.81
2022-08-09T13:18:04.945Z,60.50
2022-08-09T13:18:49.366Z,64.16
2022-08-09T13:20:10.365Z,65.57
2022-08-09T13:21:03.976Z,63.66
2022-08-09T13:22:35.771Z,66.93
2022-08-09T13:23:05.638Z,63.22
2022-08-09T13:24:16.068Z,61.03
2022-08-09T13:24:54.103Z,64.23
2022-08-09T13:25:53.256Z,67.44
2022-08-09T13:26:49.759Z,61.31
2022-08-09T13:27:55.665Z,67.79
2022-08-09T13:28:50.033Z,62.53
2022-08-09T13:30:04.150Z,62.14
2022-08-09T13:32:15.194Z,67.50
2022-08-09T13:32:19.338Z,62.21
2022-08-09T13:32:49.233Z,61.44
2022-08-09T13:33:52.463Z,64.28
2022-08-09T13:34:49.219Z,65.33
2022-08-09T13:36:38.658Z,67.54
2022-08-09T13:36:49.349Z,63.31
2022-08-09T13:37:51.297Z,65.24